sensor_id;sensor_type;location;lat;lon;timestamp;pressure;altitude;pressure_sealevel;temperature;humidity
50394;BME280;36308;46.312;25.288;2023-04-28T00:01:35;96400.41;;;6.33;51.36
50394;BME280;36308;46.312;25.288;2023-04-28T00:04:00;96397.34;;;6.30;51.58
50394;BME280;36308;46.312;25.288;2023-04-28T00:06:26;96396.16;;;6.25;51.68
50394;BME280;36308;46.312;25.288;2023-04-28T00:08:51;96393.91;;;6.22;52.12
50394;BME280;36308;46.312;25.288;2023-04-28T00:11:17;96396.81;;;6.21;51.91
50394;BME280;36308;46.312;25.288;2023-04-28T00:13:42;96403.41;;;6.18;52.06
50394;BME280;36308;46.312;25.288;2023-04-28T00:16:08;96400.38;;;6.15;52.17
50394;BME280;36308;46.312;25.288;2023-04-28T00:18:33;96410.47;;;6.13;52.46
50394;BME280;36308;46.312;25.288;2023-04-28T00:20:59;96408.81;;;6.12;52.37
50394;BME280;36308;46.312;25.288;2023-04-28T00:23:25;96405.53;;;6.10;52.47
50394;BME280;36308;46.312;25.288;2023-04-28T00:25:52;96406.00;;;6.06;52.51
50394;BME280;36308;46.312;25.288;2023-04-28T00:28:18;96406.41;;;6.03;52.65
50394;BME280;36308;46.312;25.288;2023-04-28T00:30:43;96408.50;;;6.01;52.79
50394;BME280;36308;46.312;25.288;2023-04-28T00:33:09;96401.53;;;6.00;52.83
50394;BME280;36308;46.312;25.288;2023-04-28T00:35:34;96401.75;;;5.99;52.68
50394;BME280;36308;46.312;25.288;2023-04-28T00:38:00;96405.69;;;5.96;53.41
50394;BME280;36308;46.312;25.288;2023-04-28T00:40:38;96401.56;;;5.94;52.70
50394;BME280;36308;46.312;25.288;2023-04-28T00:43:04;96404.44;;;5.92;53.13
50394;BME280;36308;46.312;25.288;2023-04-28T00:45:30;96405.47;;;5.91;52.45
50394;BME280;36308;46.312;25.288;2023-04-28T00:47:56;96409.78;;;5.92;52.67
50394;BME280;36308;46.312;25.288;2023-04-28T00:50:23;96413.47;;;5.91;52.90
50394;BME280;36308;46.312;25.288;2023-04-28T00:52:51;96409.78;;;5.92;53.17
50394;BME280;36308;46.312;25.288;2023-04-28T00:55:17;96415.13;;;5.92;53.49
50394;BME280;36308;46.312;25.288;2023-04-28T00:57:43;96420.47;;;5.92;53.13
50394;BME280;36308;46.312;25.288;2023-04-28T01:00:09;96422.06;;;5.93;53.46
50394;BME280;36308;46.312;25.288;2023-04-28T01:02:35;96430.31;;;5.92;54.07
50394;BME280;36308;46.312;25.288;2023-04-28T01:05:02;96424.16;;;5.91;53.53
50394;BME280;36308;46.312;25.288;2023-04-28T01:07:28;96424.16;;;5.91;54.26
50394;BME280;36308;46.312;25.288;2023-04-28T01:09:54;96413.75;;;5.83;54.05
50394;BME280;36308;46.312;25.288;2023-04-28T01:12:20;96419.25;;;5.88;53.91
50394;BME280;36308;46.312;25.288;2023-04-28T01:14:46;96429.13;;;5.87;54.08
50394;BME280;36308;46.312;25.288;2023-04-28T01:17:12;96420.72;;;5.84;53.86
50394;BME280;36308;46.312;25.288;2023-04-28T01:19:38;96424.41;;;5.83;54.27
50394;BME280;36308;46.312;25.288;2023-04-28T01:22:03;96422.00;;;5.81;54.27
50394;BME280;36308;46.312;25.288;2023-04-28T01:24:29;96430.22;;;5.80;54.30
50394;BME280;36308;46.312;25.288;2023-04-28T01:26:55;96418.94;;;5.78;54.16
50394;BME280;36308;46.312;25.288;2023-04-28T01:29:20;96429.59;;;5.78;54.92
50394;BME280;36308;46.312;25.288;2023-04-28T01:31:46;96421.00;;;5.76;54.77
50394;BME280;36308;46.312;25.288;2023-04-28T01:34:11;96417.28;;;5.77;54.72
50394;BME280;36308;46.312;25.288;2023-04-28T01:36:37;96427.16;;;5.76;55.07
50394;BME280;36308;46.312;25.288;2023-04-28T01:39:02;96418.53;;;5.74;54.67
50394;BME280;36308;46.312;25.288;2023-04-28T01:41:29;96429.00;;;5.76;55.20
50394;BME280;36308;46.312;25.288;2023-04-28T01:43:54;96420.19;;;5.75;55.42
50394;BME280;36308;46.312;25.288;2023-04-28T01:46:20;96418.53;;;5.74;55.36
50394;BME280;36308;46.312;25.288;2023-04-28T01:48:46;96421.41;;;5.73;55.16
50394;BME280;36308;46.312;25.288;2023-04-28T01:51:12;96425.75;;;5.74;55.49
50394;BME280;36308;46.312;25.288;2023-04-28T01:53:37;96426.75;;;5.73;55.96
50394;BME280;36308;46.312;25.288;2023-04-28T01:56:03;96423.50;;;5.71;55.89
50394;BME280;36308;46.312;25.288;2023-04-28T01:58:28;96428.81;;;5.71;56.10
50394;BME280;36308;46.312;25.288;2023-04-28T02:00:54;96427.22;;;5.70;55.99
50394;BME280;36308;46.312;25.288;2023-04-28T02:03:19;96429.28;;;5.67;56.41
50394;BME280;36308;46.312;25.288;2023-04-28T02:05:45;96430.91;;;5.69;56.47
50394;BME280;36308;46.312;25.288;2023-04-28T02:08:10;96431.94;;;5.67;55.98
50394;BME280;36308;46.312;25.288;2023-04-28T02:10:36;96436.66;;;5.65;56.02
50394;BME280;36308;46.312;25.288;2023-04-28T02:13:01;96431.13;;;5.67;56.24
50394;BME280;36308;46.312;25.288;2023-04-28T02:15:27;96432.16;;;5.66;56.64
50394;BME280;36308;46.312;25.288;2023-04-28T02:17:52;96432.16;;;5.66;56.79
50394;BME280;36308;46.312;25.288;2023-04-28T02:20:18;96436.66;;;5.65;56.70
50394;BME280;36308;46.312;25.288;2023-04-28T02:22:43;96442.00;;;5.65;56.40
50394;BME280;36308;46.312;25.288;2023-04-28T02:25:09;96440.38;;;5.64;56.50
50394;BME280;36308;46.312;25.288;2023-04-28T02:27:35;96445.72;;;5.64;56.54
50394;BME280;36308;46.312;25.288;2023-04-28T02:30:02;96439.78;;;5.62;56.85
50394;BME280;36308;46.312;25.288;2023-04-28T02:32:28;96448.00;;;5.61;57.00
50394;BME280;36308;46.312;25.288;2023-04-28T02:34:54;96450.66;;;5.61;56.81
50394;BME280;36308;46.312;25.288;2023-04-28T02:37:20;96448.22;;;5.59;57.03
50394;BME280;36308;46.312;25.288;2023-04-28T02:39:45;96457.00;;;5.60;56.50
50394;BME280;36308;46.312;25.288;2023-04-28T02:42:11;96453.53;;;5.59;56.56
50394;BME280;36308;46.312;25.288;2023-04-28T02:44:36;96454.34;;;5.60;57.10
50394;BME280;36308;46.312;25.288;2023-04-28T02:47:02;96458.06;;;5.59;57.11
50394;BME280;36308;46.312;25.288;2023-04-28T02:49:28;96460.94;;;5.57;57.32
50394;BME280;36308;46.312;25.288;2023-04-28T02:51:53;96465.47;;;5.57;57.22
50394;BME280;36308;46.312;25.288;2023-04-28T02:54:19;96467.09;;;5.58;57.46
50394;BME280;36308;46.312;25.288;2023-04-28T02:56:52;96466.28;;;5.57;57.85
50394;BME280;36308;46.312;25.288;2023-04-28T02:59:18;96470.81;;;5.57;57.78
50394;BME280;36308;46.312;25.288;2023-04-28T03:01:44;96465.66;;;5.55;58.18
50394;BME280;36308;46.312;25.288;2023-04-28T03:04:10;96466.72;;;5.54;58.14
50394;BME280;36308;46.312;25.288;2023-04-28T03:06:35;96456.31;;;5.46;58.66
50394;BME280;36308;46.312;25.288;2023-04-28T03:09:01;96472.25;;;5.53;58.36
50394;BME280;36308;46.312;25.288;2023-04-28T03:11:26;96480.25;;;5.53;58.24
50394;BME280;36308;46.312;25.288;2023-04-28T03:13:52;96481.28;;;5.52;58.28
50394;BME280;36308;46.312;25.288;2023-04-28T03:16:17;96479.44;;;5.52;58.85
50394;BME280;36308;46.312;25.288;2023-04-28T03:18:42;96481.28;;;5.52;58.63
50394;BME280;36308;46.312;25.288;2023-04-28T03:21:08;96485.00;;;5.51;58.84
50394;BME280;36308;46.312;25.288;2023-04-28T03:23:33;96489.50;;;5.50;59.03
50394;BME280;36308;46.312;25.288;2023-04-28T03:25:59;96493.19;;;5.49;59.31
50394;BME280;36308;46.312;25.288;2023-04-28T03:28:24;96490.97;;;5.46;58.80
50394;BME280;36308;46.312;25.288;2023-04-28T03:30:50;96500.00;;;5.45;58.91
50394;BME280;36308;46.312;25.288;2023-04-28T03:33:16;96499.38;;;5.43;58.59
50394;BME280;36308;46.312;25.288;2023-04-28T03:35:41;96506.78;;;5.41;58.82
50394;BME280;36308;46.312;25.288;2023-04-28T03:38:07;96499.22;;;5.38;58.50
50394;BME280;36308;46.312;25.288;2023-04-28T03:40:32;96505.16;;;5.33;58.48
50394;BME280;36308;46.312;25.288;2023-04-28T03:42:58;96501.69;;;5.33;58.84
50394;BME280;36308;46.312;25.288;2023-04-28T03:45:23;96515.84;;;5.33;59.06
50394;BME280;36308;46.312;25.288;2023-04-28T03:47:49;96513.16;;;5.33;58.42
50394;BME280;36308;46.312;25.288;2023-04-28T03:50:14;96512.34;;;5.33;58.79
50394;BME280;36308;46.312;25.288;2023-04-28T03:52:40;96518.28;;;5.35;59.23
50394;BME280;36308;46.312;25.288;2023-04-28T03:55:05;96527.94;;;5.36;59.03
50394;BME280;36308;46.312;25.288;2023-04-28T03:57:31;96527.50;;;5.39;59.00
50394;BME280;36308;46.312;25.288;2023-04-28T03:59:56;96529.16;;;5.40;58.65
50394;BME280;36308;46.312;25.288;2023-04-28T04:02:22;96520.91;;;5.41;59.28
50394;BME280;36308;46.312;25.288;2023-04-28T04:04:47;96530.38;;;5.44;58.82
50394;BME280;36308;46.312;25.288;2023-04-28T04:07:32;96520.50;;;5.44;59.49
50394;BME280;36308;46.312;25.288;2023-04-28T04:09:57;96514.97;;;5.46;59.56
50394;BME280;36308;46.312;25.288;2023-04-28T04:12:23;96521.72;;;5.49;59.66
50394;BME280;36308;46.312;25.288;2023-04-28T04:14:48;96518.00;;;5.50;59.58
50394;BME280;36308;46.312;25.288;2023-04-28T04:17:13;96522.13;;;5.52;59.90
50394;BME280;36308;46.312;25.288;2023-04-28T04:19:39;96523.75;;;5.53;59.59
50394;BME280;36308;46.312;25.288;2023-04-28T04:22:05;96522.50;;;5.56;59.44
50394;BME280;36308;46.312;25.288;2023-04-28T04:24:31;96524.75;;;5.59;59.88
50394;BME280;36308;46.312;25.288;2023-04-28T04:26:56;96527.22;;;5.60;59.80
50394;BME280;36308;46.312;25.288;2023-04-28T04:29:22;96532.09;;;5.63;59.52
50394;BME280;36308;46.312;25.288;2023-04-28T04:31:47;96527.38;;;5.65;59.74
50394;BME280;36308;46.312;25.288;2023-04-28T04:34:13;96532.28;;;5.69;59.42
50394;BME280;36308;46.312;25.288;2023-04-28T04:36:39;96527.78;;;5.69;59.46
50394;BME280;36308;46.312;25.288;2023-04-28T04:39:04;96531.41;;;5.75;59.40
50394;BME280;36308;46.312;25.288;2023-04-28T04:41:30;96533.66;;;5.78;59.62
50394;BME280;36308;46.312;25.288;2023-04-28T04:43:55;96534.28;;;5.80;59.59
50394;BME280;36308;46.312;25.288;2023-04-28T04:46:21;96528.72;;;5.81;59.49
50394;BME280;36308;46.312;25.288;2023-04-28T04:48:47;96529.69;;;5.87;59.66
50394;BME280;36308;46.312;25.288;2023-04-28T04:51:12;96537.88;;;5.92;59.59
50394;BME280;36308;46.312;25.288;2023-04-28T04:53:38;96530.47;;;5.94;59.33
50394;BME280;36308;46.312;25.288;2023-04-28T04:56:04;96529.03;;;5.98;59.49
50394;BME280;36308;46.312;25.288;2023-04-28T04:58:30;96529.66;;;6.00;59.09
50394;BME280;36308;46.312;25.288;2023-04-28T05:00:55;96526.53;;;6.03;59.32
50394;BME280;36308;46.312;25.288;2023-04-28T05:03:21;96536.78;;;6.06;59.11
50394;BME280;36308;46.312;25.288;2023-04-28T05:05:46;96526.50;;;6.10;59.12
50394;BME280;36308;46.312;25.288;2023-04-28T05:08:13;96528.94;;;6.12;59.11
50394;BME280;36308;46.312;25.288;2023-04-28T05:10:38;96537.72;;;6.19;58.95
50394;BME280;36308;46.312;25.288;2023-04-28T05:13:04;96536.25;;;6.23;58.58
50394;BME280;36308;46.312;25.288;2023-04-28T05:15:29;96540.72;;;6.29;58.52
50394;BME280;36308;46.312;25.288;2023-04-28T05:17:55;96543.34;;;6.36;58.57
50394;BME280;36308;46.312;25.288;2023-04-28T05:20:22;96538.16;;;6.41;58.50
50394;BME280;36308;46.312;25.288;2023-04-28T05:22:47;96540.19;;;6.45;58.09
50394;BME280;36308;46.312;25.288;2023-04-28T05:25:13;96541.97;;;6.52;58.09
50394;BME280;36308;46.312;25.288;2023-04-28T05:27:38;96538.41;;;6.58;57.72
50394;BME280;36308;46.312;25.288;2023-04-28T05:30:07;96548.66;;;6.61;57.36
50394;BME280;36308;46.312;25.288;2023-04-28T05:32:33;96540.19;;;6.64;57.43
50394;BME280;36308;46.312;25.288;2023-04-28T05:34:59;96553.72;;;6.69;57.46
50394;BME280;36308;46.312;25.288;2023-04-28T05:37:25;96545.84;;;6.74;57.10
50394;BME280;36308;46.312;25.288;2023-04-28T05:39:50;96549.50;;;6.80;56.77
50394;BME280;36308;46.312;25.288;2023-04-28T05:42:16;96553.75;;;6.87;56.91
50394;BME280;36308;46.312;25.288;2023-04-28T05:44:41;96548.34;;;6.94;57.09
50394;BME280;36308;46.312;25.288;2023-04-28T05:47:07;96554.66;;;7.00;56.65
50394;BME280;36308;46.312;25.288;2023-04-28T05:49:32;96561.34;;;7.09;56.15
50394;BME280;36308;46.312;25.288;2023-04-28T05:51:58;96551.25;;;7.11;55.88
50394;BME280;36308;46.312;25.288;2023-04-28T05:54:23;96560.84;;;7.19;55.70
50394;BME280;36308;46.312;25.288;2023-04-28T05:56:49;96568.19;;;7.23;55.68
50394;BME280;36308;46.312;25.288;2023-04-28T05:59:14;96566.25;;;7.31;55.63
50394;BME280;36308;46.312;25.288;2023-04-28T06:01:40;96566.41;;;7.36;55.22
50394;BME280;36308;46.312;25.288;2023-04-28T06:04:06;96566.31;;;7.42;55.22
50394;BME280;36308;46.312;25.288;2023-04-28T06:06:31;96574.25;;;7.49;55.13
50394;BME280;36308;46.312;25.288;2023-04-28T06:08:58;96568.00;;;7.55;54.83
50394;BME280;36308;46.312;25.288;2023-04-28T06:11:23;96566.06;;;7.62;54.69
50394;BME280;36308;46.312;25.288;2023-04-28T06:13:50;96561.44;;;7.69;54.45
50394;BME280;36308;46.312;25.288;2023-04-28T06:16:16;96565.66;;;7.77;54.16
50394;BME280;36308;46.312;25.288;2023-04-28T06:18:42;96565.34;;;7.85;54.15
50394;BME280;36308;46.312;25.288;2023-04-28T06:21:08;96560.50;;;7.94;54.15
50394;BME280;36308;46.312;25.288;2023-04-28T06:23:33;96554.22;;;8.00;53.40
50394;BME280;36308;46.312;25.288;2023-04-28T06:25:59;96559.84;;;8.10;53.12
50394;BME280;36308;46.312;25.288;2023-04-28T06:28:25;96565.69;;;8.19;53.19
50394;BME280;36308;46.312;25.288;2023-04-28T06:30:51;96568.88;;;8.28;53.39
50394;BME280;36308;46.312;25.288;2023-04-28T06:33:16;96565.84;;;8.36;53.36
50394;BME280;36308;46.312;25.288;2023-04-28T06:35:41;96564.50;;;8.45;53.00
50394;BME280;36308;46.312;25.288;2023-04-28T06:38:07;96568.47;;;8.55;52.16
50394;BME280;36308;46.312;25.288;2023-04-28T06:40:33;96566.28;;;8.63;52.23
50394;BME280;36308;46.312;25.288;2023-04-28T06:42:58;96575.38;;;8.74;52.19
50394;BME280;36308;46.312;25.288;2023-04-28T06:45:29;96567.56;;;8.84;51.98
50394;BME280;36308;46.312;25.288;2023-04-28T06:47:54;96568.38;;;8.97;51.92
50394;BME280;36308;46.312;25.288;2023-04-28T06:50:21;96573.97;;;9.07;51.19
50394;BME280;36308;46.312;25.288;2023-04-28T06:52:47;96576.88;;;9.17;50.80
50394;BME280;36308;46.312;25.288;2023-04-28T06:55:14;96575.44;;;9.26;49.68
50394;BME280;36308;46.312;25.288;2023-04-28T06:57:41;96582.06;;;9.36;49.45
50394;BME280;36308;46.312;25.288;2023-04-28T07:00:08;96576.59;;;9.42;48.76
50394;BME280;36308;46.312;25.288;2023-04-28T07:02:34;96579.25;;;9.54;47.60
50394;BME280;36308;46.312;25.288;2023-04-28T07:05:01;96578.63;;;9.64;47.07
50394;BME280;36308;46.312;25.288;2023-04-28T07:07:27;96577.69;;;9.70;46.54
50394;BME280;36308;46.312;25.288;2023-04-28T07:09:53;96570.56;;;9.76;45.22
50394;BME280;36308;46.312;25.288;2023-04-28T07:12:20;96578.69;;;9.81;44.29
50394;BME280;36308;46.312;25.288;2023-04-28T07:14:45;96575.28;;;9.85;43.82
50394;BME280;36308;46.312;25.288;2023-04-28T07:17:11;96576.19;;;9.91;43.59
50394;BME280;36308;46.312;25.288;2023-04-28T07:19:37;96577.94;;;9.97;43.69
50394;BME280;36308;46.312;25.288;2023-04-28T07:22:02;96574.50;;;10.02;42.95
50394;BME280;36308;46.312;25.288;2023-04-28T07:24:27;96571.38;;;10.05;42.52
50394;BME280;36308;46.312;25.288;2023-04-28T07:26:53;96581.38;;;10.09;42.12
50394;BME280;36308;46.312;25.288;2023-04-28T07:29:19;96580.06;;;10.12;42.08
50394;BME280;36308;46.312;25.288;2023-04-28T07:31:44;96573.41;;;10.15;42.28
50394;BME280;36308;46.312;25.288;2023-04-28T07:34:10;96580.50;;;10.21;42.21
50394;BME280;36308;46.312;25.288;2023-04-28T07:36:36;96577.34;;;10.24;40.61
50394;BME280;36308;46.312;25.288;2023-04-28T07:39:01;96570.91;;;10.25;40.57
50394;BME280;36308;46.312;25.288;2023-04-28T07:41:27;96579.53;;;10.27;40.76
50394;BME280;36308;46.312;25.288;2023-04-28T07:43:53;96580.09;;;10.29;40.76
50394;BME280;36308;46.312;25.288;2023-04-28T07:46:18;96582.34;;;10.32;40.38
50394;BME280;36308;46.312;25.288;2023-04-28T07:48:44;96588.31;;;10.34;40.26
50394;BME280;36308;46.312;25.288;2023-04-28T07:51:09;96584.31;;;10.37;39.87
50394;BME280;36308;46.312;25.288;2023-04-28T07:53:35;96587.91;;;10.42;39.88
50394;BME280;36308;46.312;25.288;2023-04-28T07:56:01;96588.81;;;10.48;40.05
50394;BME280;36308;46.312;25.288;2023-04-28T07:58:26;96585.41;;;10.52;40.58
50394;BME280;36308;46.312;25.288;2023-04-28T08:00:52;96588.72;;;10.60;40.28
50394;BME280;36308;46.312;25.288;2023-04-28T08:03:18;96584.59;;;10.69;40.54
50394;BME280;36308;46.312;25.288;2023-04-28T08:05:43;96584.97;;;10.78;40.77
50394;BME280;36308;46.312;25.288;2023-04-28T08:08:09;96587.50;;;10.84;40.55
50394;BME280;36308;46.312;25.288;2023-04-28T08:10:35;96587.09;;;10.92;40.10
50394;BME280;36308;46.312;25.288;2023-04-28T08:13:02;96585.59;;;11.02;39.65
50394;BME280;36308;46.312;25.288;2023-04-28T08:15:27;96585.75;;;11.12;39.61
50394;BME280;36308;46.312;25.288;2023-04-28T08:17:53;96586.47;;;11.24;39.14
50394;BME280;36308;46.312;25.288;2023-04-28T08:20:19;96592.56;;;11.37;39.21
50394;BME280;36308;46.312;25.288;2023-04-28T08:22:45;96576.53;;;11.47;39.43
50394;BME280;36308;46.312;25.288;2023-04-28T08:25:11;96577.66;;;11.51;38.28
50394;BME280;36308;46.312;25.288;2023-04-28T08:27:36;96582.63;;;11.59;38.50
50394;BME280;36308;46.312;25.288;2023-04-28T08:30:07;96580.56;;;11.66;37.98
50394;BME280;36308;46.312;25.288;2023-04-28T08:32:32;96576.03;;;11.72;37.28
50394;BME280;36308;46.312;25.288;2023-04-28T08:34:58;96582.31;;;11.78;37.43
50394;BME280;36308;46.312;25.288;2023-04-28T08:37:25;96582.34;;;11.83;37.28
50394;BME280;36308;46.312;25.288;2023-04-28T08:39:51;96578.44;;;11.90;37.59
50394;BME280;36308;46.312;25.288;2023-04-28T08:42:25;96578.22;;;11.97;37.25
50394;BME280;36308;46.312;25.288;2023-04-28T08:44:55;96576.41;;;12.03;36.65
50394;BME280;36308;46.312;25.288;2023-04-28T08:47:29;96577.53;;;12.07;36.61
50394;BME280;36308;46.312;25.288;2023-04-28T08:50:19;96580.56;;;12.16;36.23
50394;BME280;36308;46.312;25.288;2023-04-28T08:52:46;96577.44;;;12.24;36.03
50394;BME280;36308;46.312;25.288;2023-04-28T08:55:12;96568.88;;;12.32;36.15
50394;BME280;36308;46.312;25.288;2023-04-28T08:57:44;96570.06;;;12.41;36.25
50394;BME280;36308;46.312;25.288;2023-04-28T09:00:11;96575.53;;;12.51;36.04
50394;BME280;36308;46.312;25.288;2023-04-28T09:02:37;96567.78;;;12.60;35.80
50394;BME280;36308;46.312;25.288;2023-04-28T09:05:06;96568.13;;;12.69;35.27
50394;BME280;36308;46.312;25.288;2023-04-28T09:07:33;96565.50;;;12.79;35.61
50394;BME280;36308;46.312;25.288;2023-04-28T09:10:18;96564.50;;;12.90;35.10
50394;BME280;36308;46.312;25.288;2023-04-28T09:12:44;96563.25;;;13.03;35.21
50394;BME280;36308;46.312;25.288;2023-04-28T09:15:24;96564.13;;;13.14;34.56
50394;BME280;36308;46.312;25.288;2023-04-28T09:17:51;96559.84;;;13.23;34.12
50394;BME280;36308;46.312;25.288;2023-04-28T09:20:24;96560.50;;;13.36;33.66
50394;BME280;36308;46.312;25.288;2023-04-28T09:22:50;96553.56;;;13.55;33.78
50394;BME280;36308;46.312;25.288;2023-04-28T09:25:17;96552.31;;;13.78;33.96
50394;BME280;36308;46.312;25.288;2023-04-28T09:27:43;96552.63;;;14.02;33.35
50394;BME280;36308;46.312;25.288;2023-04-28T09:30:09;96555.94;;;14.25;32.47
50394;BME280;36308;46.312;25.288;2023-04-28T09:32:35;96555.16;;;14.45;32.41
50394;BME280;36308;46.312;25.288;2023-04-28T09:35:01;96557.63;;;14.62;32.45
50394;BME280;36308;46.312;25.288;2023-04-28T09:37:30;96558.16;;;14.74;32.69
50394;BME280;36308;46.312;25.288;2023-04-28T09:39:57;96552.72;;;14.79;32.07
50394;BME280;36308;46.312;25.288;2023-04-28T09:42:40;96553.28;;;14.81;32.37
50394;BME280;36308;46.312;25.288;2023-04-28T09:45:10;96555.19;;;14.86;32.69
50394;BME280;36308;46.312;25.288;2023-04-28T09:47:44;96562.75;;;14.99;32.70
50394;BME280;36308;46.312;25.288;2023-04-28T09:50:13;96559.19;;;15.19;33.24
50394;BME280;36308;46.312;25.288;2023-04-28T09:52:42;96550.72;;;15.46;33.20
50394;BME280;36308;46.312;25.288;2023-04-28T09:55:13;96550.38;;;15.73;32.92
50394;BME280;36308;46.312;25.288;2023-04-28T09:57:39;96556.25;;;15.96;32.64
50394;BME280;36308;46.312;25.288;2023-04-28T10:00:06;96547.47;;;16.14;31.49
50394;BME280;36308;46.312;25.288;2023-04-28T10:02:34;96549.03;;;16.21;30.72
50394;BME280;36308;46.312;25.288;2023-04-28T10:05:00;96546.31;;;16.21;30.17
50394;BME280;36308;46.312;25.288;2023-04-28T10:07:27;96540.34;;;16.24;30.73
50394;BME280;36308;46.312;25.288;2023-04-28T10:09:55;96537.09;;;16.22;30.14
50394;BME280;36308;46.312;25.288;2023-04-28T10:12:22;96547.88;;;16.32;30.64
50394;BME280;36308;46.312;25.288;2023-04-28T10:14:49;96536.97;;;16.42;30.47
50394;BME280;36308;46.312;25.288;2023-04-28T10:17:19;96533.91;;;16.54;30.15
50394;BME280;36308;46.312;25.288;2023-04-28T10:19:48;96526.50;;;16.60;29.92
50394;BME280;36308;46.312;25.288;2023-04-28T10:27:47;96513.97;;;16.69;29.95
50394;BME280;36308;46.312;25.288;2023-04-28T10:30:15;96516.88;;;16.72;29.87
50394;BME280;36308;46.312;25.288;2023-04-28T10:32:41;96511.97;;;16.74;28.86
50394;BME280;36308;46.312;25.288;2023-04-28T10:38:11;96515.91;;;16.98;28.92
50394;BME280;36308;46.312;25.288;2023-04-28T10:40:39;96512.78;;;17.09;28.83
50394;BME280;36308;46.312;25.288;2023-04-28T10:43:07;96519.50;;;17.17;28.92
50394;BME280;36308;46.312;25.288;2023-04-28T10:48:17;96507.13;;;17.06;27.17
50394;BME280;36308;46.312;25.288;2023-04-28T10:56:22;96487.59;;;16.69;27.87
50394;BME280;36308;46.312;25.288;2023-04-28T10:58:58;96503.09;;;16.69;28.02
50394;BME280;36308;46.312;25.288;2023-04-28T11:01:28;96498.66;;;16.78;29.10
50394;BME280;36308;46.312;25.288;2023-04-28T11:06:31;96491.31;;;17.08;29.11
50394;BME280;36308;46.312;25.288;2023-04-28T11:12:24;96481.53;;;17.55;27.93
50394;BME280;36308;46.312;25.288;2023-04-28T11:16:59;96479.41;;;17.95;27.68
50394;BME280;36308;46.312;25.288;2023-04-28T11:19:37;96487.88;;;18.12;27.51
50394;BME280;36308;46.312;25.288;2023-04-28T11:22:13;96474.63;;;18.25;27.30
50394;BME280;36308;46.312;25.288;2023-04-28T11:24:39;96480.63;;;18.41;27.70
50394;BME280;36308;46.312;25.288;2023-04-28T11:27:05;96475.97;;;18.60;27.51
50394;BME280;36308;46.312;25.288;2023-04-28T11:29:35;96467.47;;;18.81;27.79
50394;BME280;36308;46.312;25.288;2023-04-28T11:32:02;96477.38;;;19.04;27.71
50394;BME280;36308;46.312;25.288;2023-04-28T11:34:28;96468.22;;;19.14;27.15
50394;BME280;36308;46.312;25.288;2023-04-28T11:36:54;96472.97;;;19.22;27.47
50394;BME280;36308;46.312;25.288;2023-04-28T11:39:30;96461.03;;;19.32;26.94
50394;BME280;36308;46.312;25.288;2023-04-28T11:42:01;96468.22;;;19.42;27.19
50394;BME280;36308;46.312;25.288;2023-04-28T11:44:28;96465.28;;;19.52;27.10
50394;BME280;36308;46.312;25.288;2023-04-28T11:46:58;96466.19;;;19.61;27.04
50394;BME280;36308;46.312;25.288;2023-04-28T11:49:44;96453.34;;;19.75;26.74
50394;BME280;36308;46.312;25.288;2023-04-28T11:52:11;96460.56;;;19.94;27.36
50394;BME280;36308;46.312;25.288;2023-04-28T11:54:37;96455.78;;;20.13;27.52
50394;BME280;36308;46.312;25.288;2023-04-28T11:57:03;96456.53;;;20.28;25.64
50394;BME280;36308;46.312;25.288;2023-04-28T11:59:30;96451.94;;;20.37;24.69
50394;BME280;36308;46.312;25.288;2023-04-28T12:02:05;96458.03;;;20.34;23.92
50394;BME280;36308;46.312;25.288;2023-04-28T12:09:35;96445.72;;;20.45;25.25
50394;BME280;36308;46.312;25.288;2023-04-28T12:12:05;96446.50;;;20.59;24.93
50394;BME280;36308;46.312;25.288;2023-04-28T12:14:32;96440.13;;;20.73;24.58
50394;BME280;36308;46.312;25.288;2023-04-28T12:19:50;96424.25;;;20.75;24.59
50394;BME280;36308;46.312;25.288;2023-04-28T12:22:15;96423.91;;;20.68;24.66
50394;BME280;36308;46.312;25.288;2023-04-28T12:24:42;96424.44;;;20.56;24.10
50394;BME280;36308;46.312;25.288;2023-04-28T12:27:19;96413.44;;;20.47;24.90
50394;BME280;36308;46.312;25.288;2023-04-28T12:29:50;96405.41;;;20.42;25.50
50394;BME280;36308;46.312;25.288;2023-04-28T12:32:16;96416.06;;;20.52;25.44
50394;BME280;36308;46.312;25.288;2023-04-28T12:34:44;96412.41;;;20.57;24.24
50394;BME280;36308;46.312;25.288;2023-04-28T12:37:09;96424.34;;;20.61;24.36
50394;BME280;36308;46.312;25.288;2023-04-28T12:39:38;96403.38;;;20.56;24.26
50394;BME280;36308;46.312;25.288;2023-04-28T12:42:05;96402.66;;;20.65;24.97
50394;BME280;36308;46.312;25.288;2023-04-28T12:44:36;96398.81;;;20.66;23.61
50394;BME280;36308;46.312;25.288;2023-04-28T12:47:07;96389.94;;;20.60;24.07
50394;BME280;36308;46.312;25.288;2023-04-28T12:49:36;96399.81;;;20.70;24.92
50394;BME280;36308;46.312;25.288;2023-04-28T12:52:03;96397.09;;;20.78;24.54
50394;BME280;36308;46.312;25.288;2023-04-28T12:54:29;96386.63;;;20.72;23.78
50394;BME280;36308;46.312;25.288;2023-04-28T12:56:55;96392.72;;;20.69;24.00
50394;BME280;36308;46.312;25.288;2023-04-28T12:59:21;96377.16;;;20.69;23.98
50394;BME280;36308;46.312;25.288;2023-04-28T13:01:47;96384.84;;;20.67;23.59
50394;BME280;36308;46.312;25.288;2023-04-28T13:04:13;96382.13;;;20.67;24.12
50394;BME280;36308;46.312;25.288;2023-04-28T13:06:39;96376.31;;;20.69;23.93
50394;BME280;36308;46.312;25.288;2023-04-28T13:09:11;96373.09;;;20.67;23.81
50394;BME280;36308;46.312;25.288;2023-04-28T13:11:38;96365.22;;;20.65;23.23
50394;BME280;36308;46.312;25.288;2023-04-28T13:14:04;96369.88;;;20.65;23.46
50394;BME280;36308;46.312;25.288;2023-04-28T13:16:29;96358.31;;;20.68;23.72
50394;BME280;36308;46.312;25.288;2023-04-28T13:18:56;96363.63;;;20.73;24.07
50394;BME280;36308;46.312;25.288;2023-04-28T13:21:25;96371.22;;;20.76;24.29
50394;BME280;36308;46.312;25.288;2023-04-28T13:23:52;96363.16;;;20.71;23.82
50394;BME280;36308;46.312;25.288;2023-04-28T13:26:18;96354.91;;;20.62;23.76